Time;durP1;ratioP1;P1;durP2;ratioP2;P2;SDS_P1;SDS_P2;PMS_P1;PMS_P2;Temp;Humidity;BMP_temperature;BMP_pressure;BME280_temperature;BME280_humidity;BME280_pressure;Samples;Min_cycle;Max_cycle;Signal;HPM_P1;HPM_P2
2023/07/03 00:02:12;;;;;;;6.80;0.93;;;;;;;14.94;54.47;99590.59;4980705;28;20054;-46
2023/07/03 00:04:45;;;;;;;3.40;1.25;;;;;;;14.93;54.35;99578.47;4981238;28;20041;-43
2023/07/03 00:07:14;;;;;;;6.50;1.38;;;;;;;14.94;54.43;99575.81;4981220;28;20402;-44
2023/07/03 00:09:42;;;;;;;5.85;1.33;;;;;;;14.96;54.84;99573.19;4987697;28;20061;-43
2023/07/03 00:12:10;;;;;;;7.70;1.25;;;;;;;14.96;55.05;99578.38;4979504;28;20045;-40
2023/07/03 00:14:38;;;;;;;5.65;1.70;;;;;;;14.95;54.68;99559.28;4979365;28;20061;-41
2023/07/03 00:17:07;;;;;;;6.60;1.73;;;;;;;14.95;54.16;99561.88;4981449;28;20046;-49
2023/07/03 00:19:34;;;;;;;4.28;1.20;;;;;;;14.94;54.70;99559.31;4977164;28;20159;-43
2023/07/03 00:22:01;;;;;;;8.02;1.05;;;;;;;14.93;54.84;99568.03;4976319;28;20090;-44
2023/07/03 00:24:29;;;;;;;4.90;1.05;;;;;;;14.93;54.71;99558.44;4982713;28;20513;-46
2023/07/03 00:26:56;;;;;;;5.13;1.33;;;;;;;14.92;54.94;99561.13;4977910;28;20061;-39
2023/07/03 00:29:24;;;;;;;2.10;0.93;;;;;;;14.90;54.79;99563.78;4979910;28;20473;-43
2023/07/03 00:31:51;;;;;;;4.00;1.25;;;;;;;14.90;55.28;99575.03;4977604;28;20053;-45
2023/07/03 00:34:18;;;;;;;4.78;0.93;;;;;;;14.92;54.92;99571.56;4979307;28;20139;-40
2023/07/03 00:36:46;;;;;;;6.57;1.33;;;;;;;14.89;54.97;99568.13;4979862;28;20058;-41
2023/07/03 00:39:14;;;;;;;7.55;0.90;;;;;;;14.88;55.11;99566.41;4982894;28;20058;-40
2023/07/03 00:41:42;;;;;;;4.57;0.70;;;;;;;14.87;55.05;99563.84;4982840;28;20050;-44
2023/07/03 00:44:11;;;;;;;4.90;0.95;;;;;;;14.88;54.68;99575.97;4983534;28;20042;-46
2023/07/03 00:46:40;;;;;;;5.03;0.75;;;;;;;14.83;55.69;99573.50;4966954;28;20054;-43
2023/07/03 00:49:09;;;;;;;7.90;1.33;;;;;;;14.82;55.11;99566.59;4979701;28;20057;-37
2023/07/03 00:51:39;;;;;;;5.65;1.23;;;;;;;14.83;56.00;99573.50;4983393;28;20056;-44
2023/07/03 00:54:05;;;;;;;5.20;1.00;;;;;;;14.81;55.10;99569.22;4986723;28;20049;-41
2023/07/03 00:56:32;;;;;;;4.10;0.77;;;;;;;14.82;55.11;99571.78;4984805;28;20056;-41
2023/07/03 00:58:59;;;;;;;6.25;0.90;;;;;;;14.82;55.40;99563.97;4982741;28;20049;-40
2023/07/03 01:01:45;;;;;;;9.77;1.45;;;;;;;14.77;55.69;99563.25;4986671;28;20592;-44
2023/07/03 01:07:01;;;;;;;5.68;0.93;;;;;;;14.77;55.39;99558.03;4995747;28;20411;-42
2023/07/03 01:09:35;;;;;;;5.72;0.98;;;;;;;14.76;55.63;99557.16;4987327;28;20076;-45
2023/07/03 01:12:03;;;;;;;7.10;1.20;;;;;;;14.75;55.72;99550.22;4989714;28;20050;-42
2023/07/03 01:14:30;;;;;;;5.80;1.10;;;;;;;14.72;55.62;99559.88;4985843;28;20054;-46
2023/07/03 01:16:58;;;;;;;6.50;0.88;;;;;;;14.71;55.80;99552.97;4985146;28;20061;-43
2023/07/03 01:19:31;;;;;;;4.80;0.80;;;;;;;14.69;56.05;99557.38;4995458;28;20045;-39
2023/07/03 01:25:00;;;;;;;4.50;1.58;;;;;;;14.58;55.98;99552.44;5017762;28;21131;-43
2023/07/03 01:27:31;;;;;;;4.25;1.17;;;;;;;14.61;56.35;99548.00;4984001;28;20061;-46
2023/07/03 01:30:00;;;;;;;8.98;1.33;;;;;;;14.58;55.99;99550.69;4990557;28;20514;-48
2023/07/03 01:32:31;;;;;;;6.70;1.35;;;;;;;14.56;56.61;99549.88;4989285;28;20053;-43
2023/07/03 01:34:58;;;;;;;7.68;1.60;;;;;;;14.53;56.42;99552.59;4994929;28;20386;-40
2023/07/03 01:37:27;;;;;;;7.72;1.33;;;;;;;14.51;56.18;99556.97;4993169;28;20053;-43
2023/07/03 01:39:56;;;;;;;9.13;1.25;;;;;;;14.44;56.50;99543.25;4994397;28;20049;-42
2023/07/03 01:42:25;;;;;;;8.32;2.35;;;;;;;14.40;56.54;99547.69;4992873;28;20559;-43
2023/07/03 01:44:52;;;;;;;8.68;1.48;;;;;;;14.36;56.68;99550.44;4996525;28;20806;-42
2023/07/03 01:47:20;;;;;;;4.68;1.10;;;;;;;14.32;56.30;99552.25;4993073;28;20050;-41
2023/07/03 01:49:48;;;;;;;7.22;0.90;;;;;;;14.27;57.45;99548.91;4994276;28;20041;-43
2023/07/03 01:52:19;;;;;;;9.27;1.00;;;;;;;14.23;56.83;99542.06;4994691;28;20049;-43
2023/07/03 01:55:10;;;;;;;4.63;1.13;;;;;;;14.11;57.82;99544.09;4995238;28;20053;-42
2023/07/03 01:57:46;;;;;;;8.82;1.85;;;;;;;14.12;57.14;99544.97;4992615;28;20050;-45
2023/07/03 02:00:19;;;;;;;4.65;0.70;;;;;;;14.11;57.42;99538.91;4983680;28;20042;-40
2023/07/03 02:02:50;;;;;;;5.57;0.93;;;;;;;14.08;56.66;99531.16;4982067;28;20127;-44
2023/07/03 02:05:22;;;;;;;7.55;1.50;;;;;;;14.04;57.28;99534.72;4980469;28;20053;-47
2023/07/03 02:07:54;;;;;;;7.53;1.13;;;;;;;14.01;58.02;99529.59;4994102;28;20446;-43
2023/07/03 02:10:21;;;;;;;5.70;1.02;;;;;;;13.99;57.33;99528.78;4995230;28;20514;-38
2023/07/03 02:12:48;;;;;;;4.35;1.30;;;;;;;13.96;58.19;99528.88;4982246;28;20046;-45
2023/07/03 02:15:15;;;;;;;9.70;1.52;;;;;;;13.93;58.05;99527.19;4984855;28;20065;-46
2023/07/03 02:17:42;;;;;;;6.40;0.98;;;;;;;13.91;57.85;99530.75;4984924;28;20062;-40
2023/07/03 02:20:14;;;;;;;5.80;0.82;;;;;;;13.86;58.06;99523.03;4992878;28;20068;-42
2023/07/03 02:22:41;;;;;;;3.88;0.98;;;;;;;13.84;58.16;99525.69;4982472;28;20058;-48
2023/07/03 02:25:10;;;;;;;7.53;1.95;;;;;;;13.84;58.22;99524.81;4981509;28;20061;-45
2023/07/03 02:27:37;;;;;;;6.85;1.20;;;;;;;13.81;58.73;99533.56;4988245;28;20064;-43
2023/07/03 02:30:04;;;;;;;6.32;1.40;;;;;;;13.85;58.48;99527.38;4983988;28;20050;-44
2023/07/03 02:32:35;;;;;;;6.03;1.52;;;;;;;13.84;58.63;99523.06;4980225;28;21252;-45
2023/07/03 02:35:03;;;;;;;5.43;0.85;;;;;;;13.85;58.34;99516.97;4975174;28;20518;-51
2023/07/03 02:37:31;;;;;;;8.68;1.50;;;;;;;13.88;59.10;99516.03;4968936;28;20054;-48
2023/07/03 02:39:58;;;;;;;4.68;0.77;;;;;;;13.87;58.65;99517.78;4965269;28;20057;-39
2023/07/03 02:42:26;;;;;;;5.72;1.45;;;;;;;13.92;58.98;99511.63;4968224;28;20041;-38
2023/07/03 02:44:53;;;;;;;3.53;1.15;;;;;;;13.93;58.73;99511.59;4965681;28;21248;-43
2023/07/03 02:47:19;;;;;;;5.68;0.93;;;;;;;13.96;58.78;99508.03;4965936;28;20053;-44
2023/07/03 02:49:46;;;;;;;8.70;1.00;;;;;;;13.98;59.06;99506.25;4966543;28;21677;-42
2023/07/03 02:52:13;;;;;;;3.72;1.23;;;;;;;14.00;58.38;99510.53;4966952;28;20054;-41
2023/07/03 02:54:39;;;;;;;4.88;0.52;;;;;;;14.00;58.94;99512.28;4972055;28;20053;-43
2023/07/03 02:57:07;;;;;;;7.40;0.70;;;;;;;14.01;59.55;99506.16;4968214;28;20057;-41
2023/07/03 02:59:33;;;;;;;3.63;0.88;;;;;;;14.03;58.40;99512.19;4975269;28;20137;-43
2023/07/03 03:02:00;;;;;;;5.10;0.75;;;;;;;14.04;58.51;99513.91;4973540;28;20061;-40
2023/07/03 03:04:27;;;;;;;5.38;0.80;;;;;;;14.05;58.59;99512.16;4973189;28;20786;-50
2023/07/03 03:06:54;;;;;;;8.05;1.38;;;;;;;14.04;59.69;99516.50;4978572;28;20437;-45
2023/07/03 03:09:20;;;;;;;5.85;0.90;;;;;;;14.03;59.54;99509.59;4972347;28;20081;-43
2023/07/03 03:11:47;;;;;;;10.98;1.55;;;;;;;14.05;58.94;99513.00;4970561;28;20061;-43
2023/07/03 03:14:14;;;;;;;4.80;0.77;;;;;;;14.05;59.07;99513.00;4971601;28;20050;-40
2023/07/03 03:16:40;;;;;;;7.47;1.55;;;;;;;14.05;60.25;99513.00;4977733;28;20056;-43
2023/07/03 03:19:07;;;;;;;8.10;1.13;;;;;;;14.04;59.53;99510.44;4978857;28;20057;-44
2023/07/03 03:21:34;;;;;;;4.28;1.13;;;;;;;14.03;59.84;99509.59;4977868;28;20058;-44
2023/07/03 03:24:02;;;;;;;5.70;1.33;;;;;;;14.01;59.83;99507.03;4977774;28;20050;-43
2023/07/03 03:26:29;;;;;;;8.70;1.50;;;;;;;14.02;59.55;99507.91;4976719;28;20445;-48
2023/07/03 03:28:57;;;;;;;5.03;1.27;;;;;;;14.01;59.20;99511.38;4975182;28;20062;-43
2023/07/03 03:31:24;;;;;;;5.18;0.85;;;;;;;14.01;59.74;99508.78;4974981;28;20050;-46
2023/07/03 03:33:50;;;;;;;7.35;1.35;;;;;;;13.99;59.23;99508.81;4977910;28;20193;-44
2023/07/03 03:36:17;;;;;;;6.50;1.23;;;;;;;13.97;60.21;99504.53;4981141;28;20104;-45
2023/07/03 03:38:44;;;;;;;4.40;1.15;;;;;;;13.94;59.49;99505.47;4978951;28;20061;-44
2023/07/03 03:41:10;;;;;;;6.72;1.20;;;;;;;13.93;59.50;99502.91;4975824;28;20057;-46
2023/07/03 03:43:37;;;;;;;4.57;1.40;;;;;;;13.91;60.36;99505.53;4974732;28;20076;-39
2023/07/03 03:46:04;;;;;;;6.72;1.02;;;;;;;13.90;60.32;99492.56;4974486;28;20506;-47
2023/07/03 03:48:33;;;;;;;4.80;1.15;;;;;;;13.88;60.17;99490.88;4979224;28;20092;-45
2023/07/03 03:51:00;;;;;;;6.18;1.13;;;;;;;13.82;59.33;99496.22;4974256;28;21429;-42
2023/07/03 03:53:27;;;;;;;6.38;0.77;;;;;;;13.80;60.41;99487.59;4979333;28;20147;-44
2023/07/03 03:55:54;;;;;;;7.97;1.63;;;;;;;13.77;60.48;99492.88;4977637;28;20493;-41
2023/07/03 03:58:21;;;;;;;6.80;0.70;;;;;;;13.76;60.24;99480.78;4977372;28;20050;-46
2023/07/03 04:00:50;;;;;;;5.32;0.88;;;;;;;13.72;60.52;99485.19;4965467;28;20053;-41
2023/07/03 04:03:18;;;;;;;8.90;1.45;;;;;;;13.72;59.78;99486.94;4977654;28;20050;-48
2023/07/03 04:05:45;;;;;;;9.52;1.73;;;;;;;13.70;60.08;99486.13;4974154;28;20141;-40
2023/07/03 04:08:12;;;;;;;8.45;1.25;;;;;;;13.66;60.23;99489.69;4975526;28;20058;-40
2023/07/03 04:10:39;;;;;;;4.20;1.42;;;;;;;13.64;59.53;99481.09;4978619;28;20064;-37
2023/07/03 04:13:06;;;;;;;5.60;1.63;;;;;;;13.60;60.26;99480.28;4978564;28;20050;-39
2023/07/03 04:15:35;;;;;;;4.63;1.27;;;;;;;13.59;60.72;99495.06;4971718;28;20069;-44
2023/07/03 04:18:01;;;;;;;6.07;0.90;;;;;;;13.56;61.30;99489.94;4971268;28;20058;-41
2023/07/03 04:20:29;;;;;;;7.07;1.55;;;;;;;13.55;59.93;99492.56;4974502;28;20061;-49
2023/07/03 04:22:56;;;;;;;5.35;0.63;;;;;;;13.53;60.47;99490.00;4971992;28;20697;-49
2023/07/03 04:25:22;;;;;;;6.03;1.60;;;;;;;13.51;61.04;99496.97;4969305;28;20049;-42
2023/07/03 04:27:49;;;;;;;6.55;1.55;;;;;;;13.54;60.74;99483.88;4973740;28;20053;-41
2023/07/03 04:30:16;;;;;;;5.72;1.35;;;;;;;13.55;61.33;99477.81;4970077;28;20132;-44
2023/07/03 04:32:42;;;;;;;4.53;1.20;;;;;;;13.58;60.92;99477.72;4974043;28;20057;-43
2023/07/03 04:35:09;;;;;;;4.70;0.88;;;;;;;13.61;61.49;99481.97;4976432;28;20042;-47
2023/07/03 04:37:36;;;;;;;5.40;0.77;;;;;;;13.63;61.68;99469.81;4975352;28;20057;-46
2023/07/03 04:40:04;;;;;;;2.97;0.73;;;;;;;13.66;61.69;99474.06;4963104;28;20772;-43
2023/07/03 04:42:31;;;;;;;4.07;0.95;;;;;;;13.68;60.94;99477.50;4970877;28;20049;-47
2023/07/03 04:45:00;;;;;;;8.55;0.95;;;;;;;13.71;62.04;99480.03;4965013;28;20485;-44
2023/07/03 04:47:27;;;;;;;3.22;0.60;;;;;;;13.73;61.94;99478.25;4963627;28;20061;-45
2023/07/03 04:49:55;;;;;;;6.10;1.15;;;;;;;13.76;61.27;99478.16;4969363;28;20058;-44
2023/07/03 04:52:27;;;;;;;6.75;0.95;;;;;;;13.79;61.02;99480.69;4972479;28;20498;-47
2023/07/03 04:54:54;;;;;;;3.35;0.82;;;;;;;13.81;61.63;99472.84;4976069;28;20507;-44
2023/07/03 04:57:21;;;;;;;6.68;1.23;;;;;;;13.83;61.45;99477.13;4972266;28;20060;-39
2023/07/03 04:59:48;;;;;;;7.05;1.02;;;;;;;13.87;61.53;99470.94;4968069;28;20047;-43
2023/07/03 05:02:17;;;;;;;4.55;1.08;;;;;;;13.93;61.76;99479.47;4962515;28;20061;-37
2023/07/03 05:04:45;;;;;;;4.00;1.55;;;;;;;13.94;61.32;99473.38;4973418;28;20670;-47
2023/07/03 05:07:12;;;;;;;3.97;1.27;;;;;;;14.00;61.52;99481.03;4970182;28;20061;-44
2023/07/03 05:09:38;;;;;;;6.78;1.02;;;;;;;14.04;60.92;99480.06;4965513;28;20058;-44
2023/07/03 05:12:05;;;;;;;5.95;1.05;;;;;;;14.10;61.54;99479.91;4964323;28;20053;-44
2023/07/03 05:14:32;;;;;;;4.07;1.08;;;;;;;14.16;61.59;99491.91;4970229;28;20046;-41
2023/07/03 05:16:59;;;;;;;6.25;1.15;;;;;;;14.20;61.59;99484.84;4967124;28;20085;-42
2023/07/03 05:19:25;;;;;;;7.63;0.80;;;;;;;14.21;61.99;99482.22;4965926;28;20050;-46
2023/07/03 05:21:52;;;;;;;8.50;1.17;;;;;;;14.24;60.97;99482.13;4967655;28;20065;-48
2023/07/03 05:24:19;;;;;;;4.80;1.02;;;;;;;14.27;61.79;99481.19;4969281;28;20050;-44
2023/07/03 05:26:45;;;;;;;5.00;1.10;;;;;;;14.27;61.66;99475.97;4970205;28;20704;-47
2023/07/03 05:29:12;;;;;;;3.95;0.90;;;;;;;14.27;61.07;99473.38;4974224;28;20057;-41
2023/07/03 05:31:39;;;;;;;4.03;0.68;;;;;;;14.24;61.88;99476.06;4977060;28;20445;-40
2023/07/03 05:34:05;;;;;;;4.80;0.95;;;;;;;14.22;61.61;99472.66;4973936;28;21485;-46
2023/07/03 05:36:32;;;;;;;15.02;2.15;;;;;;;14.22;61.66;99472.66;4973260;28;20050;-44
2023/07/03 05:38:59;;;;;;;3.60;1.05;;;;;;;14.23;61.54;99484.78;4977037;28;20760;-44
2023/07/03 05:41:25;;;;;;;7.38;1.40;;;;;;;14.23;62.21;99480.44;4975044;28;20932;-46
2023/07/03 05:43:52;;;;;;;6.22;1.30;;;;;;;14.25;61.89;99478.63;4972634;28;20050;-39
2023/07/03 05:46:19;;;;;;;4.63;0.80;;;;;;;14.29;61.64;99476.81;4972258;28;20062;-44
2023/07/03 05:48:45;;;;;;;7.43;1.45;;;;;;;14.35;62.28;99484.44;4974392;28;20066;-38
2023/07/03 05:51:12;;;;;;;5.63;1.33;;;;;;;14.47;62.18;99482.38;4972575;28;20058;-47
2023/07/03 05:53:39;;;;;;;3.67;0.98;;;;;;;14.57;61.52;99481.25;4972468;28;20054;-44
2023/07/03 05:56:05;;;;;;;6.25;1.20;;;;;;;14.63;62.16;99468.03;4976582;28;20072;-46
2023/07/03 05:58:32;;;;;;;5.25;1.55;;;;;;;14.73;62.00;99479.03;4974755;28;20058;-42
2023/07/03 06:00:59;;;;;;;5.25;0.82;;;;;;;14.83;61.11;99484.84;4975251;28;20054;-44
2023/07/03 06:03:26;;;;;;;7.38;0.60;;;;;;;14.92;61.70;99488.94;4970931;28;20096;-41
2023/07/03 06:05:52;;;;;;;3.47;0.88;;;;;;;15.02;61.29;99486.91;4963974;28;20666;-47
2023/07/03 06:08:20;;;;;;;6.55;0.65;;;;;;;15.13;61.27;99481.41;4975195;28;20054;-40
2023/07/03 06:10:46;;;;;;;6.15;0.80;;;;;;;15.28;61.44;99486.13;4976281;28;20426;-46
2023/07/03 06:13:13;;;;;;;8.02;1.13;;;;;;;15.42;61.10;99490.06;4975684;28;20058;-43
2023/07/03 06:15:41;;;;;;;5.22;1.77;;;;;;;15.56;60.54;99494.81;4977102;28;20053;-44
2023/07/03 06:18:07;;;;;;;1.70;0.93;;;;;;;15.68;60.34;99496.19;4975104;28;20062;-46
2023/07/03 06:20:34;;;;;;;4.28;1.08;;;;;;;15.84;60.45;99493.91;4975587;28;20378;-43
2023/07/03 06:23:01;;;;;;;3.67;0.73;;;;;;;15.99;60.21;99491.72;4967464;28;20112;-42
2023/07/03 06:25:28;;;;;;;6.15;1.45;;;;;;;16.12;59.80;99486.94;4973973;28;20046;-43
2023/07/03 06:27:54;;;;;;;4.20;0.50;;;;;;;16.30;59.22;99501.09;4971831;28;20054;-42
2023/07/03 06:30:24;;;;;;;4.47;0.60;;;;;;;16.44;59.36;99498.84;4971473;28;20058;-50
2023/07/03 06:32:50;;;;;;;4.75;0.75;;;;;;;16.56;58.47;99507.16;4975505;28;20073;-46
2023/07/03 06:35:18;;;;;;;1.73;0.73;;;;;;;16.64;58.93;99494.66;4974532;28;20054;-41
2023/07/03 06:37:44;;;;;;;5.88;0.63;;;;;;;16.70;58.01;99499.69;4970922;28;20658;-47
2023/07/03 06:40:14;;;;;;;4.18;1.42;;;;;;;16.80;57.86;99504.56;4973018;28;20050;-44
2023/07/03 06:42:41;;;;;;;5.28;0.82;;;;;;;16.83;57.32;99504.44;4974362;28;20054;-42
2023/07/03 06:45:08;;;;;;;5.05;1.17;;;;;;;16.81;57.71;99503.63;4967977;28;20046;-43
2023/07/03 06:47:35;;;;;;;2.17;0.90;;;;;;;16.74;56.74;99508.25;4972031;28;20042;-39
2023/07/03 06:50:02;;;;;;;5.15;0.73;;;;;;;16.69;57.16;99508.41;4974756;28;20047;-41
2023/07/03 06:52:29;;;;;;;6.03;0.70;;;;;;;16.64;57.72;99502.50;4973013;28;20458;-44
2023/07/03 06:54:55;;;;;;;1.52;0.52;;;;;;;16.62;57.18;99516.56;4974791;28;20057;-43
2023/07/03 06:57:22;;;;;;;3.88;0.60;;;;;;;16.68;57.62;99511.94;4974711;28;20457;-43
2023/07/03 06:59:51;;;;;;;5.25;0.90;;;;;;;16.87;57.50;99510.41;4969598;28;20067;-43
2023/07/03 07:02:17;;;;;;;7.20;1.10;;;;;;;17.01;57.42;99509.88;4966152;28;20057;-41
2023/07/03 07:04:45;;;;;;;5.32;1.13;;;;;;;17.17;57.09;99508.44;4968590;28;20112;-40
2023/07/03 07:07:12;;;;;;;7.70;0.80;;;;;;;17.39;56.47;99496.25;4976157;28;20053;-41
2023/07/03 07:09:39;;;;;;;5.82;0.95;;;;;;;17.66;56.52;99502.13;4975624;28;20050;-48
2023/07/03 07:12:06;;;;;;;2.70;0.98;;;;;;;17.95;56.93;99494.84;4975618;28;20489;-41
2023/07/03 07:14:33;;;;;;;7.80;1.13;;;;;;;18.15;55.49;99489.66;4975053;28;20058;-41
2023/07/03 07:16:59;;;;;;;3.03;0.68;;;;;;;18.38;55.55;99488.69;4967970;28;20051;-46
2023/07/03 07:19:26;;;;;;;4.88;0.90;;;;;;;18.47;55.31;99500.50;4969851;28;20068;-45
2023/07/03 07:21:57;;;;;;;7.53;1.00;;;;;;;18.48;54.07;99505.69;4978945;28;20616;-44
2023/07/03 07:24:27;;;;;;;2.20;0.68;;;;;;;18.54;54.80;99506.34;4969505;28;20050;-46
2023/07/03 07:26:54;;;;;;;8.02;0.52;;;;;;;18.72;54.57;99500.28;4969198;28;20791;-46
2023/07/03 07:29:24;;;;;;;2.78;1.17;;;;;;;19.04;54.63;99509.34;4973987;28;20470;-46
2023/07/03 07:31:55;;;;;;;6.65;0.82;;;;;;;19.19;53.34;99498.16;4976085;28;20386;-43
2023/07/03 07:34:23;;;;;;;7.07;0.60;;;;;;;19.20;52.75;99504.25;4968675;28;20451;-41
2023/07/03 07:36:50;;;;;;;3.50;1.08;;;;;;;19.16;52.29;99503.56;4967335;28;20042;-42
2023/07/03 07:39:20;;;;;;;6.38;0.93;;;;;;;19.08;51.93;99496.03;4971804;28;20498;-41
2023/07/03 07:41:47;;;;;;;;;;;;;;;18.95;52.68;99500.13;4981211;28;20795;-43
2023/07/03 07:44:13;;;;;;;3.22;0.38;;;;;;;19.12;52.49;99496.75;4981525;28;20262;-44
2023/07/03 07:46:40;;;;;;;6.07;0.98;;;;;;;19.18;51.02;99496.44;4975770;28;20058;-45
2023/07/03 07:49:08;;;;;;;6.75;0.63;;;;;;;19.18;51.07;99488.56;4974864;28;20049;-50
2023/07/03 07:51:35;;;;;;;6.75;1.33;;;;;;;19.27;52.09;99485.53;4980868;28;20053;-46
2023/07/03 07:54:03;;;;;;;4.78;0.98;;;;;;;19.56;51.40;99486.78;4977047;28;20054;-45
2023/07/03 07:56:30;;;;;;;5.63;1.27;;;;;;;19.82;51.44;99484.66;4977278;28;20057;-44
2023/07/03 07:58:59;;;;;;;3.60;0.88;;;;;;;20.13;50.89;99480.50;4979600;28;20064;-46
2023/07/03 08:01:26;;;;;;;5.93;0.50;;;;;;;20.42;50.22;99488.63;4978253;28;20584;-47
2023/07/03 08:03:53;;;;;;;6.68;1.55;;;;;;;20.55;49.19;99500.19;4978980;28;20509;-46
2023/07/03 08:06:20;;;;;;;3.95;0.75;;;;;;;20.45;49.44;99493.72;4980500;28;21341;-46
2023/07/03 08:08:47;;;;;;;4.85;1.30;;;;;;;20.40;49.17;99490.50;4979941;28;20050;-41
2023/07/03 08:11:14;;;;;;;5.78;1.15;;;;;;;20.42;49.32;99493.88;4978147;28;20533;-48
2023/07/03 08:13:41;;;;;;;5.93;1.30;;;;;;;20.57;48.85;99486.09;4980381;28;20176;-47
2023/07/03 08:16:09;;;;;;;3.92;1.23;;;;;;;20.73;48.71;99470.34;4976522;28;20133;-39
2023/07/03 08:18:37;;;;;;;4.63;0.73;;;;;;;20.91;48.66;99479.03;4979710;28;20144;-43
2023/07/03 08:21:04;;;;;;;5.20;1.15;;;;;;;20.99;48.53;99479.47;4975881;28;20105;-45
2023/07/03 08:23:31;;;;;;;7.47;1.35;;;;;;;21.08;47.89;99479.88;4976948;28;20088;-48
2023/07/03 08:25:58;;;;;;;6.72;0.82;;;;;;;21.29;48.41;99481.31;4980765;28;20046;-48
2023/07/03 08:28:25;;;;;;;4.38;1.50;;;;;;;21.67;48.04;99489.72;4979931;28;20140;-41
2023/07/03 08:30:52;;;;;;;8.43;2.38;;;;;;;22.03;47.34;99472.72;4976366;28;20054;-47
2023/07/03 08:33:19;;;;;;;4.10;1.17;;;;;;;22.15;45.98;99475.56;4977900;28;20042;-47
2023/07/03 08:35:46;;;;;;;3.35;0.75;;;;;;;22.11;46.46;99489.84;4974870;28;20081;-46
2023/07/03 08:38:16;;;;;;;5.30;0.73;;;;;;;21.98;45.64;99485.31;4970427;28;20548;-42
2023/07/03 08:40:43;;;;;;;7.03;1.30;;;;;;;21.68;44.92;99494.03;4979953;28;20080;-46
2023/07/03 08:43:21;;;;;;;4.93;1.25;;;;;;;21.48;45.32;99493.41;4970604;28;20069;-45
2023/07/03 08:45:50;;;;;;;4.97;1.15;;;;;;;21.42;45.02;99494.59;4976589;28;20100;-45
2023/07/03 08:48:22;;;;;;;3.05;1.27;;;;;;;21.34;44.98;99486.31;4977423;28;20042;-47
2023/07/03 08:50:55;;;;;;;9.45;0.70;;;;;;;21.41;45.29;99486.81;4976446;28;20058;-44
2023/07/03 08:53:28;;;;;;;2.95;0.90;;;;;;;21.47;44.88;99497.00;4973352;28;20058;-41
2023/07/03 08:56:03;;;;;;;3.60;0.70;;;;;;;21.52;44.93;99489.66;4979463;28;20498;-51
2023/07/03 08:58:30;;;;;;;2.92;0.95;;;;;;;21.56;45.08;99485.94;4971657;28;20058;-42
2023/07/03 09:09:23;;;;;;;4.43;0.88;;;;;;;21.48;44.71;99482.88;5019736;28;22234;-44
2023/07/03 09:11:59;;;;;;;3.65;0.90;;;;;;;21.55;44.79;99489.50;4993844;28;20064;-44
2023/07/03 09:14:33;;;;;;;4.72;1.42;;;;;;;21.64;45.17;99481.97;4997718;28;20053;-48
2023/07/03 09:17:00;;;;;;;7.80;1.67;;;;;;;21.62;44.52;99483.88;4992886;28;20054;-46
2023/07/03 09:19:28;;;;;;;4.40;1.10;;;;;;;21.62;44.38;99478.59;4965176;28;20046;-42
2023/07/03 09:21:59;;;;;;;3.05;0.70;;;;;;;21.60;44.56;99472.56;4965693;28;20146;-42
2023/07/03 09:29:41;;;;;;;5.55;1.23;;;;;;;21.69;44.42;99469.41;5032952;27;20398;-42
2023/07/03 09:32:22;;;;;;;3.70;1.15;;;;;;;21.80;44.54;99471.44;4980958;28;20057;-46
2023/07/03 09:35:15;;;;;;;5.50;0.70;;;;;;;22.00;44.14;99470.25;4972597;28;20065;-40
2023/07/03 09:37:50;;;;;;;4.25;0.93;;;;;;;22.21;43.92;99480.44;4989011;28;20076;-44
2023/07/03 09:40:22;;;;;;;4.57;1.20;;;;;;;22.37;42.92;99474.22;4990728;28;20049;-46
2023/07/03 09:42:49;;;;;;;4.60;1.00;;;;;;;22.57;44.33;99479.16;4996780;28;20089;-53
2023/07/03 09:45:21;;;;;;;2.75;0.60;;;;;;;22.71;42.79;99472.16;4993994;28;20042;-47
2023/07/03 09:47:52;;;;;;;4.13;0.98;;;;;;;22.77;42.81;99477.06;4993215;28;20045;-45
2023/07/03 09:53:02;;;;;;;4.68;1.98;;;;;;;22.88;42.20;99467.59;5034050;28;20414;-43
2023/07/03 09:55:35;;;;;;;5.93;1.15;;;;;;;22.73;41.31;99465.84;4978489;28;20455;-45
2023/07/03 09:58:11;;;;;;;6.18;1.33;;;;;;;22.80;42.22;99458.38;4999531;28;20567;-44
2023/07/03 10:00:44;;;;;;;5.20;1.88;;;;;;;22.81;41.74;99464.50;4988105;28;20044;-42
2023/07/03 10:03:23;;;;;;;6.78;2.08;;;;;;;22.71;42.12;99457.19;4978876;28;20049;-46
2023/07/03 10:05:54;;;;;;;9.23;2.42;;;;;;;22.72;41.76;99452.72;5003467;28;20050;-40
2023/07/03 10:08:26;;;;;;;5.30;1.92;;;;;;;22.91;42.63;99457.72;4996482;28;20053;-42
2023/07/03 10:10:59;;;;;;;4.97;2.30;;;;;;;23.14;42.09;99449.22;5004675;28;20049;-40
2023/07/03 10:13:35;;;;;;;4.53;2.08;;;;;;;23.20;42.00;99447.03;5000474;28;20133;-42
2023/07/03 10:16:05;;;;;;;4.32;1.98;;;;;;;23.15;41.55;99445.63;4999675;28;20057;-44
2023/07/03 10:18:35;;;;;;;4.88;1.60;;;;;;;22.98;41.38;99443.16;4995930;28;20045;-44
2023/07/03 10:21:05;;;;;;;3.92;1.90;;;;;;;22.92;41.99;99443.56;4999311;28;20054;-44
2023/07/03 10:23:35;;;;;;;4.10;1.63;;;;;;;22.87;42.24;99444.78;4998590;28;20068;-43
2023/07/03 10:26:21;;;;;;;4.15;1.05;;;;;;;22.88;42.36;99438.56;4999284;28;20436;-48
2023/07/03 10:29:19;;;;;;;4.20;1.58;;;;;;;22.94;42.73;99432.91;4995093;28;20057;-47
2023/07/03 10:31:58;;;;;;;4.75;2.13;;;;;;;23.01;42.47;99421.00;4998577;28;20068;-50
2023/07/03 10:34:33;;;;;;;7.35;1.15;;;;;;;23.03;42.20;99419.09;5019478;28;20408;-52
2023/07/03 10:37:05;;;;;;;4.45;1.92;;;;;;;23.05;42.50;99426.91;5011987;28;20049;-45
2023/07/03 10:39:41;;;;;;;4.88;1.80;;;;;;;23.06;42.24;99424.16;5006471;28;20460;-42
2023/07/03 10:42:17;;;;;;;2.95;2.40;;;;;;;23.18;41.95;99405.81;5016755;28;20162;-49
2023/07/03 10:44:46;;;;;;;4.38;1.90;;;;;;;23.27;41.68;99412.31;5009003;28;20509;-49
2023/07/03 10:47:36;;;;;;;3.25;1.83;;;;;;;23.28;41.47;99416.63;5014866;28;20068;-41
2023/07/03 10:50:03;;;;;;;2.95;2.17;;;;;;;23.34;42.50;99405.66;5015807;28;21122;-45
2023/07/03 10:52:43;;;;;;;5.32;1.80;;;;;;;23.27;42.14;99407.84;5014797;28;20073;-43
2023/07/03 10:58:10;;;;;;;3.58;0.90;;;;;;;23.08;42.45;99403.81;5068561;27;20406;-45
2023/07/03 11:03:45;;;;;;;5.07;1.63;;;;;;;22.85;42.39;99400.88;5007272;27;20414;-51
2023/07/03 11:06:28;;;;;;;5.28;1.02;;;;;;;22.65;42.70;99404.78;4997848;28;20053;-51
2023/07/03 11:11:56;;;;;;;5.47;2.78;;;;;;;22.33;42.96;99400.53;5073049;27;20185;-47
2023/07/03 11:14:43;;;;;;;5.13;2.35;;;;;;;22.27;43.49;99390.41;5033061;28;20045;-47
2023/07/03 11:17:31;;;;;;;4.03;2.28;;;;;;;22.27;43.34;99390.41;5029980;28;20569;-46
2023/07/03 11:20:08;;;;;;;5.60;2.72;;;;;;;22.21;44.04;99380.22;5049045;27;20063;-50
2023/07/03 11:28:03;;;;;;;5.18;2.20;;;;;;;22.54;42.62;99386.97;4999157;27;20433;-43
2023/07/03 11:30:32;;;;;;;3.45;1.95;;;;;;;22.24;43.63;99380.03;4987664;28;20054;-43
2023/07/03 11:33:05;;;;;;;4.75;2.42;;;;;;;22.20;43.94;99394.34;4987950;28;20490;-47
2023/07/03 11:35:32;;;;;;;6.18;3.08;;;;;;;22.17;43.97;99384.00;4978974;28;20108;-50
2023/07/03 11:38:08;;;;;;;6.38;2.58;;;;;;;21.97;43.94;99391.34;4975953;28;20046;-48
2023/07/03 11:40:59;;;;;;;6.43;2.88;;;;;;;21.76;44.93;99381.19;4973597;28;20177;-47
2023/07/03 11:46:10;;;;;;;4.10;1.27;;;;;;;21.53;45.83;99401.81;5017165;27;20408;-50
2023/07/03 11:51:16;;;;;;;4.53;1.25;;;;;;;21.18;47.83;99397.66;4988930;28;20415;-46
2023/07/03 11:53:47;;;;;;;8.60;1.40;;;;;;;21.06;47.96;99391.31;4987282;28;20050;-48
2023/07/03 11:59:24;;;;;;;6.32;1.48;;;;;;;20.68;49.49;99386.41;5040953;27;20814;-45
2023/07/03 12:01:53;;;;;;;5.28;1.17;;;;;;;20.66;49.77;99393.50;5036540;28;20049;-44
2023/07/03 12:13:35;;;;;;;4.88;1.70;;;;;;;20.51;52.17;99374.19;5019965;27;21130;-39
2023/07/03 12:16:06;;;;;;;7.03;2.10;;;;;;;20.58;51.96;99369.41;5008580;28;20115;-42
2023/07/03 12:18:35;;;;;;;3.33;1.60;;;;;;;20.53;52.26;99360.00;5009515;28;20061;-42
2023/07/03 12:21:04;;;;;;;6.35;2.33;;;;;;;20.60;52.34;99365.75;5009490;28;20412;-45
2023/07/03 12:23:37;;;;;;;7.60;1.92;;;;;;;20.73;52.59;99371.19;5003040;28;20433;-48
2023/07/03 12:26:07;;;;;;;9.15;1.70;;;;;;;;;;4999271;28;20049;-45
2023/07/03 12:28:33;;;;;;;6.88;1.33;;;;;;;20.81;52.17;99347.91;4998038;28;20065;-49
2023/07/03 12:36:27;;;;;;;5.38;2.80;;;;;;;21.43;53.06;99326.88;5056866;27;20407;-47
2023/07/03 12:38:59;;;;;;;4.90;3.08;;;;;;;21.70;53.29;99318.25;5030082;28;20171;-49
2023/07/03 12:44:03;;;;;;;4.53;1.02;;;;;;;22.03;51.48;99319.78;5089797;27;20402;-50
2023/07/03 12:46:37;;;;;;;7.22;1.23;;;;;;;22.25;51.58;99313.16;5032742;28;20061;-47